Time;durP1;ratioP1;P1;durP2;ratioP2;P2;SDS_P1;SDS_P2;PMS_P1;PMS_P2;Temp;Humidity;BMP_temperature;BMP_pressure;BME280_temperature;BME280_humidity;BME280_pressure;Samples;Min_cycle;Max_cycle;Signal;HPM_P1;HPM_P2
2022/03/09 00:00:32;;;;;;;;;;;18.70;57.30;;;;;;5013554;28;848;-68
2022/03/09 00:02:57;;;;;;;;;;;18.70;57.30;;;;;;5012594;28;1965;-68
2022/03/09 00:05:22;;;;;;;;;;;18.70;57.30;;;;;;5013733;28;864;-68
2022/03/09 00:07:48;;;;;;;;;;;18.60;57.30;;;;;;5013604;28;1304;-69
2022/03/09 00:10:13;;;;;;;;;;;18.60;57.30;;;;;;5013219;28;623;-69
2022/03/09 00:12:39;;;;;;;;;;;18.70;57.40;;;;;;5012534;28;820;-69
2022/03/09 00:15:05;;;;;;;;;;;18.60;57.30;;;;;;5013196;28;800;-69
2022/03/09 00:17:30;;;;;;;;;;;18.60;57.30;;;;;;5012321;28;1251;-69
2022/03/09 00:19:56;;;;;;;;;;;18.60;57.40;;;;;;4995816;28;901;-69
2022/03/09 00:22:21;;;;;;;;;;;18.60;57.40;;;;;;5012260;28;1898;-69
2022/03/09 00:24:46;;;;;;;;;;;18.60;57.40;;;;;;5013696;28;764;-68
2022/03/09 00:27:12;;;;;;;;;;;18.60;57.40;;;;;;5013441;28;1293;-68
2022/03/09 00:29:37;;;;;;;;;;;18.60;57.40;;;;;;5010686;28;1163;-69
2022/03/09 00:32:04;;;;;;;;;;;18.60;57.40;;;;;;5013504;28;887;-67
2022/03/09 00:34:29;;;;;;;;;;;18.60;57.40;;;;;;4996048;28;859;-68
2022/03/09 00:36:55;;;;;;;;;;;18.60;57.50;;;;;;5013264;28;1280;-68
2022/03/09 00:39:20;;;;;;;;;;;18.60;57.50;;;;;;5012565;28;1129;-68
2022/03/09 00:41:46;;;;;;;;;;;18.60;57.50;;;;;;5013219;28;1898;-68
2022/03/09 00:44:11;;;;;;;;;;;18.60;57.50;;;;;;4995718;28;704;-69
2022/03/09 00:46:37;;;;;;;;;;;18.60;57.50;;;;;;5013220;28;753;-68
2022/03/09 00:49:02;;;;;;;;;;;18.60;57.50;;;;;;5012830;28;1180;-67
2022/03/09 00:51:27;;;;;;;;;;;18.60;57.50;;;;;;4995544;28;871;-68
2022/03/09 00:53:53;;;;;;;;;;;18.60;57.60;;;;;;4995530;28;1058;-68
2022/03/09 00:56:18;;;;;;;;;;;18.60;57.60;;;;;;4995654;28;1195;-67
2022/03/09 00:58:44;;;;;;;;;;;18.60;57.50;;;;;;5012799;28;1172;-67
2022/03/09 01:01:10;;;;;;;;;;;18.50;57.50;;;;;;5013017;28;1009;-68
2022/03/09 01:03:35;;;;;;;;;;;18.50;57.50;;;;;;4995506;28;1914;-68
2022/03/09 01:06:01;;;;;;;;;;;18.50;57.60;;;;;;4995608;28;844;-68
2022/03/09 01:08:26;;;;;;;;;;;18.50;57.60;;;;;;5012680;28;1208;-69
2022/03/09 01:10:51;;;;;;;;;;;18.60;57.60;;;;;;4995379;28;923;-69
2022/03/09 01:13:17;;;;;;;;;;;18.50;57.60;;;;;;4995554;28;1030;-68
2022/03/09 01:15:42;;;;;;;;;;;18.50;57.60;;;;;;5013046;28;1034;-68
2022/03/09 01:18:08;;;;;;;;;;;18.50;57.60;;;;;;5012919;28;1179;-69
2022/03/09 01:20:34;;;;;;;;;;;18.50;57.60;;;;;;5012647;28;784;-67
2022/03/09 01:22:59;;;;;;;;;;;18.50;57.60;;;;;;5012718;28;1902;-69
2022/03/09 01:25:24;;;;;;;;;;;18.50;57.60;;;;;;4995382;28;835;-68
2022/03/09 01:27:50;;;;;;;;;;;18.50;57.60;;;;;;4995639;28;1208;-67
2022/03/09 01:30:15;;;;;;;;;;;18.50;57.70;;;;;;5012547;28;1204;-67
2022/03/09 01:32:41;;;;;;;;;;;18.50;57.70;;;;;;5012759;28;903;-67
2022/03/09 01:35:06;;;;;;;;;;;18.50;57.70;;;;;;4995575;28;1081;-66
2022/03/09 01:37:32;;;;;;;;;;;18.50;57.70;;;;;;5010329;28;1271;-66
2022/03/09 01:39:57;;;;;;;;;;;18.50;57.70;;;;;;5011426;28;895;-66
2022/03/09 01:42:22;;;;;;;;;;;18.50;57.70;;;;;;5012574;28;1906;-66
2022/03/09 01:44:48;;;;;;;;;;;18.50;57.70;;;;;;5012919;28;1010;-66
2022/03/09 01:47:13;;;;;;;;;;;18.50;57.70;;;;;;5012743;28;1277;-68
2022/03/09 01:49:39;;;;;;;;;;;18.50;57.70;;;;;;5011331;28;891;-68
2022/03/09 01:52:05;;;;;;;;;;;18.50;57.70;;;;;;5012853;28;832;-69
2022/03/09 01:54:30;;;;;;;;;;;18.50;57.80;;;;;;5015298;28;1070;-66
2022/03/09 01:56:56;;;;;;;;;;;18.50;57.70;;;;;;5014749;28;1243;-67
2022/03/09 01:59:21;;;;;;;;;;;18.50;57.70;;;;;;5014757;28;955;-66
2022/03/09 02:01:47;;;;;;;;;;;18.50;57.70;;;;;;5014701;28;1910;-65
2022/03/09 02:04:12;;;;;;;;;;;18.40;57.70;;;;;;5014965;28;978;-66
2022/03/09 02:06:38;;;;;;;;;;;18.50;57.80;;;;;;5015775;28;1077;-67
2022/03/09 02:11:48;;;;;;;;;;;18.50;57.80;;;;;;5015787;28;705;-68
2022/03/09 02:14:35;;;;;;;;;;;18.50;57.80;;;;;;5015948;28;815;-68
2022/03/09 02:17:04;;;;;;;;;;;18.40;57.80;;;;;;5014388;28;1200;-68
2022/03/09 02:19:29;;;;;;;;;;;18.40;57.80;;;;;;5014305;28;1058;-68
2022/03/09 02:21:56;;;;;;;;;;;18.50;57.80;;;;;;5014326;28;1950;-68
2022/03/09 02:24:21;;;;;;;;;;;18.40;57.80;;;;;;5014587;28;831;-68
2022/03/09 02:26:47;;;;;;;;;;;18.40;57.80;;;;;;5014270;28;794;-68
2022/03/09 02:29:13;;;;;;;;;;;18.40;57.80;;;;;;5014057;28;1178;-68
2022/03/09 02:31:39;;;;;;;;;;;18.40;57.70;;;;;;5015730;28;793;-67
2022/03/09 02:34:04;;;;;;;;;;;18.50;57.80;;;;;;4998027;28;1026;-68
2022/03/09 02:36:29;;;;;;;;;;;18.40;57.70;;;;;;4988429;28;1201;-68
2022/03/09 02:38:55;;;;;;;;;;;18.50;57.70;;;;;;5013883;28;1178;-67
2022/03/09 02:41:20;;;;;;;;;;;18.50;57.70;;;;;;5015356;28;867;-68
2022/03/09 02:43:46;;;;;;;;;;;18.50;57.70;;;;;;5013997;28;1957;-68
2022/03/09 02:46:11;;;;;;;;;;;18.50;57.70;;;;;;5015166;28;924;-68
2022/03/09 02:48:37;;;;;;;;;;;18.50;57.60;;;;;;5013528;28;1165;-68
2022/03/09 02:51:02;;;;;;;;;;;18.50;57.60;;;;;;5015067;28;952;-68
2022/03/09 02:53:27;;;;;;;;;;;18.50;57.60;;;;;;5015034;28;915;-69
2022/03/09 02:55:53;;;;;;;;;;;18.50;57.60;;;;;;5015308;28;963;-69
2022/03/09 02:58:18;;;;;;;;;;;18.50;57.50;;;;;;4997432;28;1264;-68
2022/03/09 03:00:44;;;;;;;;;;;18.50;57.50;;;;;;4996976;28;986;-69
2022/03/09 03:03:09;;;;;;;;;;;18.50;57.50;;;;;;5013357;28;1914;-69
2022/03/09 03:05:34;;;;;;;;;;;18.50;57.40;;;;;;4997591;28;903;-69
2022/03/09 03:08:00;;;;;;;;;;;18.50;57.40;;;;;;5014980;28;1300;-69
2022/03/09 03:10:25;;;;;;;;;;;18.60;57.50;;;;;;5014608;28;859;-69
2022/03/09 03:12:51;;;;;;;;;;;18.60;57.50;;;;;;5014684;28;856;-69
2022/03/09 03:15:16;;;;;;;;;;;18.60;57.50;;;;;;5014725;28;891;-69
2022/03/09 03:17:42;;;;;;;;;;;18.60;57.40;;;;;;5013170;28;1209;-67
2022/03/09 03:20:07;;;;;;;;;;;18.60;57.40;;;;;;5014371;28;887;-68
2022/03/09 03:22:33;;;;;;;;;;;18.60;57.40;;;;;;5014395;28;1898;-70
2022/03/09 03:24:58;;;;;;;;;;;18.60;57.40;;;;;;5014693;28;840;-68
2022/03/09 03:27:23;;;;;;;;;;;18.60;57.40;;;;;;5014419;28;1293;-69
2022/03/09 03:29:49;;;;;;;;;;;18.60;58.00;;;;;;5014187;28;1231;-69
2022/03/09 03:32:14;;;;;;;;;;;18.60;57.40;;;;;;5014222;28;1018;-69
2022/03/09 03:34:40;;;;;;;;;;;18.60;57.40;;;;;;5014395;28;664;-69
2022/03/09 03:37:05;;;;;;;;;;;18.60;57.40;;;;;;5008332;28;1323;-70
2022/03/09 03:39:31;;;;;;;;;;;18.60;57.50;;;;;;5014038;28;1069;-69
2022/03/09 03:41:56;;;;;;;;;;;18.50;57.40;;;;;;5012945;28;1903;-69
2022/03/09 03:44:22;;;;;;;;;;;18.50;57.40;;;;;;5014286;28;700;-69
2022/03/09 03:46:47;;;;;;;;;;;18.50;57.40;;;;;;5012730;28;777;-68
2022/03/09 03:49:12;;;;;;;;;;;18.60;57.50;;;;;;5012539;28;1173;-69
2022/03/09 03:51:38;;;;;;;;;;;18.50;57.40;;;;;;4996368;28;927;-69
2022/03/09 03:54:03;;;;;;;;;;;18.60;57.40;;;;;;5014218;28;796;-69
2022/03/09 03:56:29;;;;;;;;;;;18.60;57.40;;;;;;5014137;28;784;-69
2022/03/09 03:58:54;;;;;;;;;;;18.60;57.40;;;;;;4995915;28;1214;-68
2022/03/09 04:01:20;;;;;;;;;;;18.60;57.30;;;;;;5013756;28;998;-69
2022/03/09 04:03:45;;;;;;;;;;;18.60;57.20;;;;;;5013854;28;1902;-69
2022/03/09 04:06:10;;;;;;;;;;;18.70;57.20;;;;;;4996219;28;951;-68
2022/03/09 04:08:36;;;;;;;;;;;18.70;57.10;;;;;;5013436;28;1215;-69
2022/03/09 04:11:01;;;;;;;;;;;18.70;57.00;;;;;;5013994;28;875;-69
2022/03/09 04:13:27;;;;;;;;;;;18.80;57.00;;;;;;4996139;28;1373;-69
2022/03/09 04:15:52;;;;;;;;;;;18.80;56.90;;;;;;4995474;28;931;-68
2022/03/09 04:18:17;;;;;;;;;;;18.80;56.90;;;;;;5012433;28;1578;-68
2022/03/09 04:20:43;;;;;;;;;;;18.80;56.80;;;;;;5013320;28;938;-69
2022/03/09 04:23:10;;;;;;;;;;;18.80;56.80;;;;;;5013450;28;1902;-69
2022/03/09 04:25:38;;;;;;;;;;;18.90;56.70;;;;;;5013645;28;851;-69
2022/03/09 04:28:04;;;;;;;;;;;18.90;56.60;;;;;;5013473;28;1197;-69
2022/03/09 04:30:29;;;;;;;;;;;18.90;56.60;;;;;;5013002;28;1176;-69
2022/03/09 04:32:55;;;;;;;;;;;18.90;56.60;;;;;;4995912;28;871;-69
2022/03/09 04:35:20;;;;;;;;;;;18.90;56.60;;;;;;5013652;28;1260;-68
2022/03/09 04:37:46;;;;;;;;;;;18.90;56.50;;;;;;4995764;28;1302;-68
2022/03/09 04:40:11;;;;;;;;;;;18.90;56.50;;;;;;5013196;28;975;-69
2022/03/09 04:42:37;;;;;;;;;;;18.90;56.50;;;;;;5013497;28;1902;-69
2022/03/09 04:45:03;;;;;;;;;;;18.90;56.50;;;;;;4995769;28;903;-68
2022/03/09 04:47:31;;;;;;;;;;;18.90;56.50;;;;;;5013793;28;1193;-69
2022/03/09 04:49:56;;;;;;;;;;;18.90;56.40;;;;;;5013170;28;800;-69
2022/03/09 04:52:22;;;;;;;;;;;18.90;56.40;;;;;;5013192;28;1122;-69
2022/03/09 04:54:47;;;;;;;;;;;18.90;56.40;;;;;;5013274;28;808;-69
2022/03/09 04:57:13;;;;;;;;;;;18.90;56.40;;;;;;5013261;28;1208;-68
2022/03/09 04:59:38;;;;;;;;;;;18.90;56.40;;;;;;5012900;28;942;-68
2022/03/09 05:02:04;;;;;;;;;;;18.90;56.40;;;;;;5012976;28;1906;-68
2022/03/09 05:04:29;;;;;;;;;;;18.90;56.40;;;;;;5013264;28;978;-68
2022/03/09 05:06:55;;;;;;;;;;;18.90;56.40;;;;;;4995487;28;951;-68
2022/03/09 05:09:20;;;;;;;;;;;18.90;56.40;;;;;;5012873;28;1286;-68
2022/03/09 05:11:46;;;;;;;;;;;18.90;56.40;;;;;;4995526;28;1078;-68
2022/03/09 05:14:11;;;;;;;;;;;18.90;56.40;;;;;;5012996;28;907;-68
2022/03/09 05:16:37;;;;;;;;;;;18.90;56.40;;;;;;5013123;28;1123;-68
2022/03/09 05:19:02;;;;;;;;;;;18.90;56.40;;;;;;4995133;28;1291;-68
2022/03/09 05:21:27;;;;;;;;;;;18.90;56.40;;;;;;5013367;28;882;-68
2022/03/09 05:23:53;;;;;;;;;;;18.90;56.40;;;;;;5012938;28;1894;-68
2022/03/09 05:26:18;;;;;;;;;;;18.90;56.40;;;;;;4995929;28;852;-68
2022/03/09 05:28:44;;;;;;;;;;;18.90;56.40;;;;;;5016286;28;1606;-68
2022/03/09 05:31:09;;;;;;;;;;;18.90;56.40;;;;;;4999075;28;1137;-68
2022/03/09 05:33:35;;;;;;;;;;;18.90;56.40;;;;;;5016580;28;888;-68
2022/03/09 05:36:00;;;;;;;;;;;19.00;56.40;;;;;;5016578;28;1255;-68
2022/03/09 05:38:25;;;;;;;;;;;19.00;56.30;;;;;;4998725;28;1210;-68
2022/03/09 05:40:51;;;;;;;;;;;19.00;56.30;;;;;;4999045;28;805;-68
2022/03/09 05:43:16;;;;;;;;;;;19.00;56.20;;;;;;5016371;28;1894;-69
2022/03/09 05:45:42;;;;;;;;;;;19.00;56.10;;;;;;5016448;28;797;-69
2022/03/09 05:48:07;;;;;;;;;;;19.00;56.10;;;;;;5016281;28;1287;-68
2022/03/09 05:50:33;;;;;;;;;;;19.10;56.10;;;;;;5016110;28;944;-69
2022/03/09 05:52:58;;;;;;;;;;;19.10;56.10;;;;;;5016242;28;1005;-69
2022/03/09 05:55:23;;;;;;;;;;;19.10;56.10;;;;;;4998750;28;1192;-69
2022/03/09 05:57:49;;;;;;;;;;;19.10;56.00;;;;;;5016123;28;1231;-69
2022/03/09 06:00:15;;;;;;;;;;;19.10;56.00;;;;;;5015861;28;800;-69
2022/03/09 06:02:40;;;;;;;;;;;19.10;56.00;;;;;;4998502;28;1971;-69
2022/03/09 06:05:06;;;;;;;;;;;19.10;56.00;;;;;;5016006;28;879;-69
2022/03/09 06:07:32;;;;;;;;;;;19.10;56.00;;;;;;4988664;28;1807;-67
2022/03/09 06:09:58;;;;;;;;;;;19.10;56.00;;;;;;4996074;28;1867;-68
2022/03/09 06:12:23;;;;;;;;;;;19.10;56.00;;;;;;5006403;28;1050;-70
2022/03/09 06:14:48;;;;;;;;;;;19.10;55.90;;;;;;5015168;28;967;-70
2022/03/09 06:17:14;;;;;;;;;;;19.10;55.90;;;;;;5010170;28;2152;-69
2022/03/09 06:19:39;;;;;;;;;;;19.10;55.90;;;;;;5011168;28;1510;-69
2022/03/09 06:22:05;;;;;;;;;;;19.10;55.90;;;;;;5014047;28;1906;-68
2022/03/09 06:24:30;;;;;;;;;;;19.10;55.90;;;;;;5015568;28;1057;-69
2022/03/09 06:26:56;;;;;;;;;;;19.10;55.90;;;;;;5013909;28;812;-69
2022/03/09 06:29:21;;;;;;;;;;;19.10;55.90;;;;;;5013607;28;1564;-68
2022/03/09 06:31:47;;;;;;;;;;;19.20;56.00;;;;;;4998152;28;795;-68
2022/03/09 06:34:12;;;;;;;;;;;19.10;55.90;;;;;;5015532;28;800;-70
2022/03/09 06:36:42;;;;;;;;;;;19.10;55.90;;;;;;4992074;28;2756;-69
2022/03/09 06:39:08;;;;;;;;;;;19.10;55.90;;;;;;5014306;28;1295;-69
2022/03/09 06:41:34;;;;;;;;;;;19.10;55.90;;;;;;5015140;28;1221;-69
2022/03/09 06:43:59;;;;;;;;;;;19.10;56.00;;;;;;5015111;28;1930;-69
2022/03/09 06:46:25;;;;;;;;;;;19.10;56.00;;;;;;5015299;28;903;-69
2022/03/09 06:48:50;;;;;;;;;;;19.10;56.00;;;;;;5014578;28;1278;-68
2022/03/09 06:51:15;;;;;;;;;;;19.10;56.00;;;;;;5015129;28;1020;-69
2022/03/09 06:53:42;;;;;;;;;;;19.10;56.00;;;;;;5014901;28;1106;-69
2022/03/09 06:56:07;;;;;;;;;;;19.10;56.00;;;;;;5014090;28;835;-69
2022/03/09 06:58:33;;;;;;;;;;;19.10;56.00;;;;;;5014660;28;1223;-68
2022/03/09 07:00:58;;;;;;;;;;;19.10;56.00;;;;;;5014362;28;844;-68
2022/03/09 07:03:24;;;;;;;;;;;19.10;56.00;;;;;;5014779;28;1894;-69
2022/03/09 07:05:49;;;;;;;;;;;19.10;56.00;;;;;;5014840;28;847;-68
2022/03/09 07:08:15;;;;;;;;;;;19.10;56.00;;;;;;5014695;28;1190;-69
2022/03/09 07:10:41;;;;;;;;;;;19.10;56.00;;;;;;5002684;28;1503;-68
2022/03/09 07:13:06;;;;;;;;;;;19.10;56.10;;;;;;5012461;28;769;-67
2022/03/09 07:15:32;;;;;;;;;;;19.10;56.00;;;;;;4996007;28;1025;-69
2022/03/09 07:17:57;;;;;;;;;;;19.10;56.10;;;;;;5013889;28;1217;-68
2022/03/09 07:20:23;;;;;;;;;;;19.10;56.10;;;;;;5013484;28;828;-69
2022/03/09 07:22:48;;;;;;;;;;;19.10;56.10;;;;;;5014034;28;1894;-68
2022/03/09 07:25:14;;;;;;;;;;;19.10;56.10;;;;;;4995849;28;1251;-69
2022/03/09 07:27:39;;;;;;;;;;;19.10;56.10;;;;;;4979737;28;1295;-68
2022/03/09 07:30:05;;;;;;;;;;;19.00;56.10;;;;;;4995701;28;1148;-70
2022/03/09 07:32:30;;;;;;;;;;;19.10;56.10;;;;;;5013612;28;947;-71
2022/03/09 07:34:55;;;;;;;;;;;19.10;56.10;;;;;;4995933;28;928;-70
2022/03/09 07:37:21;;;;;;;;;;;19.10;56.10;;;;;;5013318;28;1283;-70
2022/03/09 07:39:46;;;;;;;;;;;19.00;56.10;;;;;;4991442;28;1648;-69
2022/03/09 07:42:12;;;;;;;;;;;19.10;56.20;;;;;;4994911;28;1958;-69
2022/03/09 07:44:37;;;;;;;;;;;19.00;56.10;;;;;;5012905;28;1072;-70
2022/03/09 07:47:04;;;;;;;;;;;19.00;56.20;;;;;;5012843;28;1310;-68
2022/03/09 07:49:33;;;;;;;;;;;19.00;56.20;;;;;;5011661;28;1014;-67
2022/03/09 07:51:59;;;;;;;;;;;19.00;56.20;;;;;;5012725;28;847;-68
2022/03/09 07:54:24;;;;;;;;;;;19.00;56.20;;;;;;4994837;28;1144;-68
2022/03/09 07:56:49;;;;;;;;;;;19.00;56.20;;;;;;5012270;28;887;-71
2022/03/09 07:59:15;;;;;;;;;;;19.00;56.20;;;;;;5011072;28;1200;-71
2022/03/09 08:01:40;;;;;;;;;;;19.00;56.20;;;;;;5011964;28;715;-71
2022/03/09 08:04:07;;;;;;;;;;;19.00;56.20;;;;;;4995048;28;1907;-71
2022/03/09 08:06:32;;;;;;;;;;;19.00;56.30;;;;;;4980041;28;1410;-70
2022/03/09 08:08:58;;;;;;;;;;;19.00;56.30;;;;;;5013428;28;1181;-70
2022/03/09 08:11:23;;;;;;;;;;;19.00;56.30;;;;;;4996135;28;1498;-70
2022/03/09 08:13:49;;;;;;;;;;;19.00;56.30;;;;;;5013872;28;796;-70
2022/03/09 08:16:14;;;;;;;;;;;19.00;56.30;;;;;;5013698;28;828;-70
2022/03/09 08:18:39;;;;;;;;;;;19.00;56.30;;;;;;4995581;28;1192;-70
2022/03/09 08:21:05;;;;;;;;;;;19.00;56.30;;;;;;4996105;28;1254;-70
2022/03/09 08:23:30;;;;;;;;;;;19.10;56.20;;;;;;5014009;28;1906;-70
2022/03/09 08:25:56;;;;;;;;;;;19.20;56.00;;;;;;5013360;28;693;-69
2022/03/09 08:28:21;;;;;;;;;;;19.30;55.90;;;;;;5013407;28;1191;-70
2022/03/09 08:30:46;;;;;;;;;;;19.50;55.80;;;;;;5013361;28;1369;-70
2022/03/09 08:33:12;;;;;;;;;;;19.60;55.50;;;;;;4995901;28;871;-70
2022/03/09 08:35:38;;;;;;;;;;;19.70;55.30;;;;;;5013537;28;1243;-69
2022/03/09 08:38:04;;;;;;;;;;;19.80;55.00;;;;;;5028879;28;1329;-70
2022/03/09 08:40:29;;;;;;;;;;;19.90;54.80;;;;;;5013329;28;862;-69
2022/03/09 08:42:55;;;;;;;;;;;20.00;54.50;;;;;;5028484;28;1899;-70
2022/03/09 08:45:20;;;;;;;;;;;20.10;54.30;;;;;;4995768;28;812;-70
2022/03/09 08:47:46;;;;;;;;;;;20.20;54.10;;;;;;5012034;28;1337;-70
2022/03/09 08:50:11;;;;;;;;;;;20.30;54.00;;;;;;5013051;28;887;-70
2022/03/09 08:52:37;;;;;;;;;;;20.30;53.70;;;;;;5028453;28;859;-70
2022/03/09 08:55:02;;;;;;;;;;;20.40;53.60;;;;;;5012979;28;982;-70
2022/03/09 08:57:29;;;;;;;;;;;20.50;53.50;;;;;;5012985;28;1283;-70
2022/03/09 08:59:55;;;;;;;;;;;20.50;53.40;;;;;;5012905;28;891;-70
2022/03/09 09:02:21;;;;;;;;;;;20.50;53.30;;;;;;5017155;28;1965;-70
2022/03/09 09:04:46;;;;;;;;;;;20.60;53.20;;;;;;5017333;28;725;-69
2022/03/09 09:07:12;;;;;;;;;;;20.60;53.20;;;;;;4999443;28;1290;-70
2022/03/09 09:09:37;;;;;;;;;;;20.60;53.10;;;;;;5016980;28;840;-70
2022/03/09 09:12:03;;;;;;;;;;;20.60;53.10;;;;;;5032763;28;765;-70
2022/03/09 09:14:29;;;;;;;;;;;20.70;53.10;;;;;;5032274;28;827;-70
2022/03/09 09:16:54;;;;;;;;;;;20.70;53.10;;;;;;5032425;28;771;-69
2022/03/09 09:19:19;;;;;;;;;;;20.70;53.20;;;;;;5016581;28;1219;-70
2022/03/09 09:21:45;;;;;;;;;;;20.70;53.20;;;;;;5016928;28;1054;-70
2022/03/09 09:24:10;;;;;;;;;;;20.70;53.20;;;;;;5016732;28;1902;-69
2022/03/09 09:26:36;;;;;;;;;;;20.70;53.20;;;;;;5032184;28;1010;-69
2022/03/09 09:29:01;;;;;;;;;;;20.70;53.20;;;;;;4998758;28;1172;-70
2022/03/09 09:31:27;;;;;;;;;;;20.70;53.20;;;;;;4998981;28;1313;-70
2022/03/09 09:33:52;;;;;;;;;;;20.60;53.10;;;;;;5016635;28;841;-70
2022/03/09 09:36:17;;;;;;;;;;;20.60;53.20;;;;;;5016839;28;1196;-70
2022/03/09 09:38:43;;;;;;;;;;;20.60;53.20;;;;;;5016249;28;1213;-70
2022/03/09 09:41:13;;;;;;;;;;;20.60;53.20;;;;;;5016670;28;915;-70
2022/03/09 09:43:40;;;;;;;;;;;20.60;53.30;;;;;;4995623;28;1906;-70
2022/03/09 09:46:05;;;;;;;;;;;20.50;53.20;;;;;;5012881;28;1009;-70
2022/03/09 09:48:31;;;;;;;;;;;20.50;53.30;;;;;;4981898;28;1425;-70
2022/03/09 09:50:56;;;;;;;;;;;20.60;53.40;;;;;;5016248;28;851;-70
2022/03/09 09:53:22;;;;;;;;;;;20.50;53.50;;;;;;4998486;28;891;-70
2022/03/09 09:55:47;;;;;;;;;;;20.50;53.50;;;;;;4998628;28;816;-70
2022/03/09 09:58:13;;;;;;;;;;;20.50;53.60;;;;;;4998262;28;1215;-70
2022/03/09 10:00:38;;;;;;;;;;;20.40;53.60;;;;;;4998100;28;820;-70
2022/03/09 10:03:04;;;;;;;;;;;20.40;53.70;;;;;;4998456;28;1906;-70
2022/03/09 10:05:29;;;;;;;;;;;20.40;53.70;;;;;;5015698;28;1042;-70
2022/03/09 10:08:03;;;;;;;;;;;20.40;53.80;;;;;;5015651;28;1273;-70
2022/03/09 10:10:32;;;;;;;;;;;20.40;53.90;;;;;;5015483;28;812;-70
2022/03/09 10:13:17;;;;;;;;;;;20.30;53.80;;;;;;4997471;28;991;-70
2022/03/09 10:15:44;;;;;;;;;;;20.30;53.90;;;;;;4998211;28;820;-70
2022/03/09 10:18:16;;;;;;;;;;;20.30;54.00;;;;;;5014396;28;1302;-70
2022/03/09 10:20:41;;;;;;;;;;;20.30;54.00;;;;;;4982110;28;1296;-70
2022/03/09 10:23:08;;;;;;;;;;;20.30;54.10;;;;;;4998354;28;1967;-70
2022/03/09 10:25:34;;;;;;;;;;;20.20;54.10;;;;;;4998343;28;872;-70
2022/03/09 10:28:00;;;;;;;;;;;20.20;54.10;;;;;;5015530;28;1200;-70
2022/03/09 10:30:32;;;;;;;;;;;20.20;54.20;;;;;;4997653;28;1265;-70
2022/03/09 10:32:58;;;;;;;;;;;20.20;54.20;;;;;;4981731;28;1328;-70
2022/03/09 10:35:29;;;;;;;;;;;20.20;54.30;;;;;;4997765;28;1223;-70
2022/03/09 10:37:54;;;;;;;;;;;20.20;54.30;;;;;;5030483;28;1207;-70
2022/03/09 10:40:20;;;;;;;;;;;20.20;54.30;;;;;;5030144;28;630;-70
2022/03/09 10:42:46;;;;;;;;;;;20.20;54.40;;;;;;5015289;28;1964;-70
2022/03/09 10:45:11;;;;;;;;;;;20.10;54.40;;;;;;5014018;28;1614;-70
2022/03/09 10:47:43;;;;;;;;;;;20.10;54.50;;;;;;5046750;22;2124;-67
2022/03/09 10:50:08;;;;;;;;;;;20.10;54.50;;;;;;5010434;28;1727;-68
2022/03/09 10:52:46;;;;;;;;;;;20.10;54.60;;;;;;5014869;28;791;-69
2022/03/09 10:55:31;;;;;;;;;;;20.10;54.60;;;;;;5015190;28;874;-68
2022/03/09 10:58:05;;;;;;;;;;;20.00;54.60;;;;;;5015053;28;1222;-69
2022/03/09 11:00:34;;;;;;;;;;;20.00;54.70;;;;;;5014687;28;1226;-68
2022/03/09 11:03:03;;;;;;;;;;;20.00;54.70;;;;;;4997515;28;1915;-69
2022/03/09 11:05:29;;;;;;;;;;;20.00;54.80;;;;;;4997989;28;1006;-69
2022/03/09 11:07:54;;;;;;;;;;;20.00;54.80;;;;;;4997292;28;1227;-69
2022/03/09 11:10:20;;;;;;;;;;;20.00;54.80;;;;;;4997026;28;962;-69
2022/03/09 11:12:45;;;;;;;;;;;20.00;54.70;;;;;;5014671;28;902;-67
2022/03/09 11:15:12;;;;;;;;;;;20.10;54.70;;;;;;4997082;28;1348;-68
2022/03/09 11:17:37;;;;;;;;;;;20.10;54.70;;;;;;4997395;28;1278;-67
2022/03/09 11:20:03;;;;;;;;;;;20.10;54.60;;;;;;4996766;28;1623;-67
2022/03/09 11:22:28;;;;;;;;;;;20.20;54.60;;;;;;4997066;28;1907;-67
2022/03/09 11:24:54;;;;;;;;;;;20.20;54.60;;;;;;4996764;28;1098;-67
2022/03/09 11:27:19;;;;;;;;;;;20.20;54.50;;;;;;5008952;28;2159;-67
2022/03/09 11:29:45;;;;;;;;;;;20.20;54.50;;;;;;5008226;28;1187;-67
2022/03/09 11:32:14;;;;;;;;;;;20.20;54.50;;;;;;5007851;28;1925;-67
2022/03/09 11:34:43;;;;;;;;;;;20.20;54.40;;;;;;4997700;28;1537;-68
2022/03/09 11:37:12;;;;;;;;;;;20.20;54.40;;;;;;5006359;28;2053;-68
2022/03/09 11:39:39;;;;;;;;;;;20.20;54.40;;;;;;5004875;28;1283;-68
2022/03/09 11:42:19;;;;;;;;;;;20.10;54.40;;;;;;5024798;28;1956;-69
2022/03/09 11:44:45;;;;;;;;;;;20.20;54.50;;;;;;5012838;28;1179;-68
2022/03/09 11:47:10;;;;;;;;;;;20.20;54.50;;;;;;5014322;28;860;-68
2022/03/09 11:49:38;;;;;;;;;;;20.20;54.50;;;;;;5011802;28;1692;-68
2022/03/09 11:52:08;;;;;;;;;;;20.20;54.50;;;;;;5014716;28;1431;-68
2022/03/09 11:54:39;;;;;;;;;;;20.20;54.60;;;;;;5012874;28;812;-68
2022/03/09 11:57:04;;;;;;;;;;;20.10;54.60;;;;;;5026574;28;1185;-69
2022/03/09 11:59:30;;;;;;;;;;;20.20;54.60;;;;;;5034906;28;1328;-69
2022/03/09 12:01:58;;;;;;;;;;;20.10;54.60;;;;;;5015734;28;1914;-69
2022/03/09 12:04:39;;;;;;;;;;;20.10;54.60;;;;;;5033604;28;819;-69
2022/03/09 12:07:04;;;;;;;;;;;20.10;54.60;;;;;;5033353;28;898;-69
2022/03/09 12:09:48;;;;;;;;;;;20.10;54.60;;;;;;5018537;28;1185;-69
2022/03/09 12:12:14;;;;;;;;;;;20.10;54.70;;;;;;5013560;28;1078;-70
2022/03/09 12:14:58;;;;;;;;;;;20.10;54.70;;;;;;4995941;28;872;-69
2022/03/09 12:17:30;;;;;;;;;;;20.00;54.70;;;;;;5013692;28;891;-69
2022/03/09 12:20:28;;;;;;;;;;;20.00;54.70;;;;;;4995630;28;823;-69
2022/03/09 12:22:59;;;;;;;;;;;20.00;54.80;;;;;;4969555;28;1894;-69
2022/03/09 12:25:34;;;;;;;;;;;20.00;54.90;;;;;;5013526;28;812;-68
2022/03/09 12:28:19;;;;;;;;;;;20.00;54.90;;;;;;4995647;28;1424;-68
2022/03/09 12:30:47;;;;;;;;;;;20.00;54.90;;;;;;5013254;28;1156;-70
2022/03/09 12:33:33;;;;;;;;;;;20.00;54.90;;;;;;5013430;28;914;-69
2022/03/09 12:36:09;;;;;;;;;;;20.00;55.00;;;;;;5012050;28;1392;-69
2022/03/09 12:38:34;;;;;;;;;;;19.90;54.90;;;;;;5027255;28;1311;-68
2022/03/09 12:41:00;;;;;;;;;;;20.00;55.00;;;;;;5020977;28;2254;-70
2022/03/09 12:43:26;;;;;;;;;;;19.90;55.00;;;;;;5009505;28;1957;-70
2022/03/09 12:45:52;;;;;;;;;;;20.00;55.00;;;;;;5005261;28;1814;-69
2022/03/09 12:48:21;;;;;;;;;;;20.00;55.10;;;;;;5012142;28;1283;-69
2022/03/09 12:50:47;;;;;;;;;;;20.00;55.00;;;;;;5008925;28;1141;-69
2022/03/09 12:53:22;;;;;;;;;;;20.00;54.90;;;;;;4995568;28;1194;-69
2022/03/09 12:55:47;;;;;;;;;;;20.00;54.90;;;;;;4995427;28;1146;-69
2022/03/09 12:58:22;;;;;;;;;;;20.10;54.90;;;;;;5013114;28;1210;-69
2022/03/09 13:00:47;;;;;;;;;;;20.10;54.80;;;;;;5012897;28;922;-69
2022/03/09 13:03:13;;;;;;;;;;;20.10;54.80;;;;;;5011848;28;1969;-69
2022/03/09 13:05:39;;;;;;;;;;;20.10;54.70;;;;;;5012987;28;848;-70
2022/03/09 13:08:05;;;;;;;;;;;20.10;54.70;;;;;;5013078;28;1271;-70
2022/03/09 13:10:31;;;;;;;;;;;20.10;54.70;;;;;;5011340;28;805;-70
2022/03/09 13:13:01;;;;;;;;;;;20.10;54.70;;;;;;5011877;28;1089;-69
2022/03/09 13:15:35;;;;;;;;;;;20.10;54.70;;;;;;5011823;28;907;-69
2022/03/09 13:18:01;;;;;;;;;;;20.10;54.70;;;;;;4995386;28;1422;-69
2022/03/09 13:20:26;;;;;;;;;;;20.10;54.70;;;;;;5012503;28;860;-70
2022/03/09 13:22:52;;;;;;;;;;;20.10;54.70;;;;;;5011729;28;1895;-69
2022/03/09 13:25:17;;;;;;;;;;;20.10;54.70;;;;;;5011628;28;859;-69
2022/03/09 13:27:43;;;;;;;;;;;20.10;54.70;;;;;;5013036;28;1183;-70
2022/03/09 13:30:16;;;;;;;;;;;20.10;54.70;;;;;;5009591;28;1076;-70
2022/03/09 13:32:41;;;;;;;;;;;20.10;54.70;;;;;;5009814;28;874;-69
2022/03/09 13:35:07;;;;;;;;;;;20.10;54.70;;;;;;5010786;28;816;-69
2022/03/09 13:37:32;;;;;;;;;;;20.10;54.80;;;;;;5012549;28;1220;-70
2022/03/09 13:39:59;;;;;;;;;;;20.10;54.80;;;;;;5012376;28;963;-68
2022/03/09 13:42:26;;;;;;;;;;;20.10;54.80;;;;;;5027851;28;1894;-68
2022/03/09 13:45:22;;;;;;;;;;;20.10;54.90;;;;;;5027774;28;823;-68
2022/03/09 13:47:50;;;;;;;;;;;20.00;54.80;;;;;;5005353;28;1265;-69
2022/03/09 13:50:36;;;;;;;;;;;20.00;54.90;;;;;;5016137;28;883;-69
2022/03/09 13:53:11;;;;;;;;;;;20.00;54.90;;;;;;5015968;28;1134;-69
2022/03/09 13:55:39;;;;;;;;;;;20.00;54.90;;;;;;5031587;28;863;-69
2022/03/09 13:58:14;;;;;;;;;;;20.00;55.00;;;;;;5016620;28;1204;-69
2022/03/09 14:00:40;;;;;;;;;;;20.00;55.00;;;;;;5016298;28;792;-68
2022/03/09 14:03:07;;;;;;;;;;;20.00;55.00;;;;;;5008439;28;1906;-68
2022/03/09 14:05:32;;;;;;;;;;;20.00;55.00;;;;;;5021357;28;2202;-68
2022/03/09 14:07:58;;;;;;;;;;;20.00;55.10;;;;;;5016132;28;1307;-68
2022/03/09 14:10:26;;;;;;;;;;;19.90;55.10;;;;;;5015647;28;1170;-68
2022/03/09 14:12:52;;;;;;;;;;;19.90;55.10;;;;;;5016275;28;1401;-68
2022/03/09 14:15:17;;;;;;;;;;;19.90;55.10;;;;;;5014671;28;1163;-68
2022/03/09 14:17:42;;;;;;;;;;;19.90;55.10;;;;;;5015758;28;1301;-68
2022/03/09 14:20:10;;;;;;;;;;;19.90;55.20;;;;;;5015378;28;915;-70
2022/03/09 14:22:42;;;;;;;;;;;19.90;55.20;;;;;;5015570;28;1898;-69
2022/03/09 14:25:07;;;;;;;;;;;19.90;55.20;;;;;;5015618;28;1107;-69
2022/03/09 14:27:33;;;;;;;;;;;19.90;55.20;;;;;;5015643;28;1272;-69
2022/03/09 14:29:58;;;;;;;;;;;19.90;55.30;;;;;;5010188;28;1219;-69
2022/03/09 14:32:24;;;;;;;;;;;19.90;55.30;;;;;;5015580;28;776;-68
2022/03/09 14:34:49;;;;;;;;;;;19.80;55.30;;;;;;5015533;28;1068;-68